sensor_id;sensor_type;location;lat;lon;timestamp;P1;durP1;ratioP1;P2;durP2;ratioP2
27163;SDS011;14685;50.618;7.024;2024-02-21T00:01:32;15.98;;;7.05;;
27163;SDS011;14685;50.618;7.024;2024-02-21T00:03:59;13.10;;;6.05;;
27163;SDS011;14685;50.618;7.024;2024-02-21T00:06:27;15.00;;;6.57;;
27163;SDS011;14685;50.618;7.024;2024-02-21T00:08:55;16.65;;;6.82;;
27163;SDS011;14685;50.618;7.024;2024-02-21T00:11:21;12.45;;;5.85;;
27163;SDS011;14685;50.618;7.024;2024-02-21T00:13:49;13.38;;;5.60;;
27163;SDS011;14685;50.618;7.024;2024-02-21T00:16:17;14.38;;;6.55;;
27163;SDS011;14685;50.618;7.024;2024-02-21T00:18:45;18.23;;;6.13;;
27163;SDS011;14685;50.618;7.024;2024-02-21T00:21:12;16.02;;;6.30;;
27163;SDS011;14685;50.618;7.024;2024-02-21T00:23:46;16.80;;;6.18;;
27163;SDS011;14685;50.618;7.024;2024-02-21T00:26:14;10.90;;;6.05;;
27163;SDS011;14685;50.618;7.024;2024-02-21T00:28:41;13.48;;;6.32;;
27163;SDS011;14685;50.618;7.024;2024-02-21T00:31:08;12.50;;;5.90;;
27163;SDS011;14685;50.618;7.024;2024-02-21T00:33:35;11.43;;;5.88;;
27163;SDS011;14685;50.618;7.024;2024-02-21T00:36:02;13.95;;;6.22;;
27163;SDS011;14685;50.618;7.024;2024-02-21T00:38:29;13.43;;;6.10;;
27163;SDS011;14685;50.618;7.024;2024-02-21T00:40:56;13.05;;;6.75;;
27163;SDS011;14685;50.618;7.024;2024-02-21T00:43:23;13.48;;;6.70;;
27163;SDS011;14685;50.618;7.024;2024-02-21T00:45:51;15.23;;;6.03;;
27163;SDS011;14685;50.618;7.024;2024-02-21T00:48:18;16.17;;;6.00;;
27163;SDS011;14685;50.618;7.024;2024-02-21T00:50:45;12.77;;;5.88;;
27163;SDS011;14685;50.618;7.024;2024-02-21T00:53:12;12.38;;;6.05;;
27163;SDS011;14685;50.618;7.024;2024-02-21T00:55:39;15.73;;;6.43;;
27163;SDS011;14685;50.618;7.024;2024-02-21T00:58:06;18.13;;;6.20;;
27163;SDS011;14685;50.618;7.024;2024-02-21T01:00:33;14.90;;;5.93;;
27163;SDS011;14685;50.618;7.024;2024-02-21T01:03:04;14.10;;;5.70;;
27163;SDS011;14685;50.618;7.024;2024-02-21T01:05:31;16.90;;;5.88;;
27163;SDS011;14685;50.618;7.024;2024-02-21T01:07:58;12.75;;;5.80;;
27163;SDS011;14685;50.618;7.024;2024-02-21T01:10:25;13.30;;;6.15;;
27163;SDS011;14685;50.618;7.024;2024-02-21T01:12:52;13.60;;;5.88;;
27163;SDS011;14685;50.618;7.024;2024-02-21T01:15:19;12.68;;;5.28;;
27163;SDS011;14685;50.618;7.024;2024-02-21T01:17:46;11.80;;;5.30;;
27163;SDS011;14685;50.618;7.024;2024-02-21T01:20:14;12.25;;;5.57;;
27163;SDS011;14685;50.618;7.024;2024-02-21T01:22:44;15.18;;;5.55;;
27163;SDS011;14685;50.618;7.024;2024-02-21T01:25:12;14.00;;;5.32;;
27163;SDS011;14685;50.618;7.024;2024-02-21T01:27:40;13.02;;;6.03;;
27163;SDS011;14685;50.618;7.024;2024-02-21T01:30:08;12.80;;;5.32;;
27163;SDS011;14685;50.618;7.024;2024-02-21T01:32:36;12.90;;;5.47;;
27163;SDS011;14685;50.618;7.024;2024-02-21T01:35:04;9.50;;;4.97;;
27163;SDS011;14685;50.618;7.024;2024-02-21T01:37:31;13.63;;;5.47;;
27163;SDS011;14685;50.618;7.024;2024-02-21T01:39:58;13.80;;;5.47;;
27163;SDS011;14685;50.618;7.024;2024-02-21T01:42:30;11.50;;;5.60;;
27163;SDS011;14685;50.618;7.024;2024-02-21T01:44:57;12.43;;;5.60;;
27163;SDS011;14685;50.618;7.024;2024-02-21T01:47:25;12.93;;;5.63;;
27163;SDS011;14685;50.618;7.024;2024-02-21T01:49:56;14.90;;;5.85;;
27163;SDS011;14685;50.618;7.024;2024-02-21T01:52:23;12.43;;;5.60;;
27163;SDS011;14685;50.618;7.024;2024-02-21T01:54:50;12.63;;;5.22;;
27163;SDS011;14685;50.618;7.024;2024-02-21T01:57:20;14.75;;;5.32;;
27163;SDS011;14685;50.618;7.024;2024-02-21T01:59:47;14.95;;;5.63;;
27163;SDS011;14685;50.618;7.024;2024-02-21T02:02:14;10.27;;;5.18;;
27163;SDS011;14685;50.618;7.024;2024-02-21T02:04:43;14.60;;;6.00;;
27163;SDS011;14685;50.618;7.024;2024-02-21T02:07:11;12.77;;;6.05;;
27163;SDS011;14685;50.618;7.024;2024-02-21T02:09:38;14.60;;;5.60;;
27163;SDS011;14685;50.618;7.024;2024-02-21T02:12:05;13.43;;;5.50;;
27163;SDS011;14685;50.618;7.024;2024-02-21T02:14:35;13.13;;;5.30;;
27163;SDS011;14685;50.618;7.024;2024-02-21T02:17:02;12.63;;;5.78;;
27163;SDS011;14685;50.618;7.024;2024-02-21T02:19:31;14.38;;;5.38;;
27163;SDS011;14685;50.618;7.024;2024-02-21T02:22:00;14.15;;;6.22;;
27163;SDS011;14685;50.618;7.024;2024-02-21T02:24:36;14.75;;;5.03;;
27163;SDS011;14685;50.618;7.024;2024-02-21T02:27:02;13.45;;;6.03;;
27163;SDS011;14685;50.618;7.024;2024-02-21T02:29:32;12.98;;;5.20;;
27163;SDS011;14685;50.618;7.024;2024-02-21T02:31:59;13.75;;;5.53;;
27163;SDS011;14685;50.618;7.024;2024-02-21T02:34:26;11.75;;;5.00;;
27163;SDS011;14685;50.618;7.024;2024-02-21T02:36:53;13.50;;;5.50;;
27163;SDS011;14685;50.618;7.024;2024-02-21T02:39:21;11.18;;;5.10;;
27163;SDS011;14685;50.618;7.024;2024-02-21T02:41:48;12.02;;;5.47;;
27163;SDS011;14685;50.618;7.024;2024-02-21T02:44:15;11.63;;;5.13;;
27163;SDS011;14685;50.618;7.024;2024-02-21T02:46:43;16.35;;;4.97;;
27163;SDS011;14685;50.618;7.024;2024-02-21T02:49:10;11.95;;;5.68;;
27163;SDS011;14685;50.618;7.024;2024-02-21T02:51:41;10.45;;;4.97;;
27163;SDS011;14685;50.618;7.024;2024-02-21T02:54:09;11.00;;;4.68;;
27163;SDS011;14685;50.618;7.024;2024-02-21T02:56:36;12.27;;;5.05;;
27163;SDS011;14685;50.618;7.024;2024-02-21T02:59:03;16.45;;;4.72;;
27163;SDS011;14685;50.618;7.024;2024-02-21T03:01:33;12.68;;;4.95;;
27163;SDS011;14685;50.618;7.024;2024-02-21T03:04:00;15.98;;;5.65;;
27163;SDS011;14685;50.618;7.024;2024-02-21T03:06:28;12.57;;;5.20;;
27163;SDS011;14685;50.618;7.024;2024-02-21T03:08:55;13.20;;;5.05;;
27163;SDS011;14685;50.618;7.024;2024-02-21T03:11:22;14.18;;;4.82;;
27163;SDS011;14685;50.618;7.024;2024-02-21T03:13:56;14.13;;;4.70;;
27163;SDS011;14685;50.618;7.024;2024-02-21T03:16:24;10.98;;;4.43;;
27163;SDS011;14685;50.618;7.024;2024-02-21T03:18:52;13.57;;;5.28;;
27163;SDS011;14685;50.618;7.024;2024-02-21T03:21:18;10.73;;;5.05;;
27163;SDS011;14685;50.618;7.024;2024-02-21T03:23:45;10.63;;;4.80;;
27163;SDS011;14685;50.618;7.024;2024-02-21T03:26:12;12.00;;;4.85;;
27163;SDS011;14685;50.618;7.024;2024-02-21T03:28:44;17.55;;;5.10;;
27163;SDS011;14685;50.618;7.024;2024-02-21T03:31:13;12.48;;;5.22;;
27163;SDS011;14685;50.618;7.024;2024-02-21T03:33:41;16.02;;;5.03;;
27163;SDS011;14685;50.618;7.024;2024-02-21T03:36:15;14.05;;;4.97;;
27163;SDS011;14685;50.618;7.024;2024-02-21T03:38:44;12.02;;;5.10;;
27163;SDS011;14685;50.618;7.024;2024-02-21T03:41:11;14.68;;;4.82;;
27163;SDS011;14685;50.618;7.024;2024-02-21T03:43:39;13.75;;;5.25;;
27163;SDS011;14685;50.618;7.024;2024-02-21T03:46:08;15.52;;;4.80;;
27163;SDS011;14685;50.618;7.024;2024-02-21T03:48:35;8.63;;;4.10;;
27163;SDS011;14685;50.618;7.024;2024-02-21T03:51:03;10.27;;;4.53;;
27163;SDS011;14685;50.618;7.024;2024-02-21T03:53:30;16.25;;;4.53;;
27163;SDS011;14685;50.618;7.024;2024-02-21T03:56:00;11.45;;;4.22;;
27163;SDS011;14685;50.618;7.024;2024-02-21T03:58:30;16.02;;;5.45;;
27163;SDS011;14685;50.618;7.024;2024-02-21T04:00:59;9.80;;;4.13;;
27163;SDS011;14685;50.618;7.024;2024-02-21T04:03:28;6.20;;;3.33;;
27163;SDS011;14685;50.618;7.024;2024-02-21T04:05:56;9.32;;;4.07;;
27163;SDS011;14685;50.618;7.024;2024-02-21T04:08:23;16.90;;;4.38;;
27163;SDS011;14685;50.618;7.024;2024-02-21T04:10:51;12.68;;;5.05;;
27163;SDS011;14685;50.618;7.024;2024-02-21T04:13:18;15.90;;;5.18;;
27163;SDS011;14685;50.618;7.024;2024-02-21T04:15:45;12.73;;;4.85;;
27163;SDS011;14685;50.618;7.024;2024-02-21T04:18:12;17.38;;;4.53;;
27163;SDS011;14685;50.618;7.024;2024-02-21T04:20:43;16.95;;;5.50;;
27163;SDS011;14685;50.618;7.024;2024-02-21T04:23:10;8.93;;;3.72;;
27163;SDS011;14685;50.618;7.024;2024-02-21T04:25:37;11.90;;;4.60;;
27163;SDS011;14685;50.618;7.024;2024-02-21T04:28:06;10.43;;;4.80;;
27163;SDS011;14685;50.618;7.024;2024-02-21T04:30:33;11.57;;;4.53;;
27163;SDS011;14685;50.618;7.024;2024-02-21T04:33:02;13.23;;;4.38;;
27163;SDS011;14685;50.618;7.024;2024-02-21T04:35:29;8.95;;;3.50;;
27163;SDS011;14685;50.618;7.024;2024-02-21T04:37:58;10.68;;;3.95;;
27163;SDS011;14685;50.618;7.024;2024-02-21T04:40:25;11.00;;;4.40;;
27163;SDS011;14685;50.618;7.024;2024-02-21T04:42:52;10.98;;;4.18;;
27163;SDS011;14685;50.618;7.024;2024-02-21T04:45:19;10.25;;;3.65;;
27163;SDS011;14685;50.618;7.024;2024-02-21T04:47:46;11.88;;;4.85;;
27163;SDS011;14685;50.618;7.024;2024-02-21T04:50:13;10.65;;;4.03;;
27163;SDS011;14685;50.618;7.024;2024-02-21T04:52:40;16.10;;;4.30;;
27163;SDS011;14685;50.618;7.024;2024-02-21T04:55:09;13.02;;;4.28;;
27163;SDS011;14685;50.618;7.024;2024-02-21T04:57:36;13.02;;;3.88;;
27163;SDS011;14685;50.618;7.024;2024-02-21T05:00:06;12.57;;;4.50;;
27163;SDS011;14685;50.618;7.024;2024-02-21T05:02:33;11.00;;;4.20;;
27163;SDS011;14685;50.618;7.024;2024-02-21T05:05:01;11.55;;;4.82;;
27163;SDS011;14685;50.618;7.024;2024-02-21T05:07:29;10.82;;;4.32;;
27163;SDS011;14685;50.618;7.024;2024-02-21T05:09:56;8.75;;;3.58;;
27163;SDS011;14685;50.618;7.024;2024-02-21T05:12:23;13.70;;;5.15;;
27163;SDS011;14685;50.618;7.024;2024-02-21T05:14:50;10.40;;;3.80;;
27163;SDS011;14685;50.618;7.024;2024-02-21T05:17:17;13.20;;;4.30;;
27163;SDS011;14685;50.618;7.024;2024-02-21T05:19:44;10.30;;;4.32;;
27163;SDS011;14685;50.618;7.024;2024-02-21T05:22:11;12.45;;;3.70;;
27163;SDS011;14685;50.618;7.024;2024-02-21T05:24:38;12.50;;;4.30;;
27163;SDS011;14685;50.618;7.024;2024-02-21T05:27:06;10.43;;;4.85;;
27163;SDS011;14685;50.618;7.024;2024-02-21T05:29:33;10.45;;;3.78;;
27163;SDS011;14685;50.618;7.024;2024-02-21T05:32:02;10.65;;;4.10;;
27163;SDS011;14685;50.618;7.024;2024-02-21T05:34:30;11.40;;;3.42;;
27163;SDS011;14685;50.618;7.024;2024-02-21T05:36:58;11.57;;;3.65;;
27163;SDS011;14685;50.618;7.024;2024-02-21T05:39:27;13.07;;;4.47;;
27163;SDS011;14685;50.618;7.024;2024-02-21T05:41:55;13.13;;;3.97;;
27163;SDS011;14685;50.618;7.024;2024-02-21T05:44:23;14.68;;;4.65;;
27163;SDS011;14685;50.618;7.024;2024-02-21T05:46:51;16.20;;;6.35;;
27163;SDS011;14685;50.618;7.024;2024-02-21T05:49:18;10.73;;;4.18;;
27163;SDS011;14685;50.618;7.024;2024-02-21T05:51:45;9.82;;;4.00;;
27163;SDS011;14685;50.618;7.024;2024-02-21T05:54:14;10.77;;;4.13;;
27163;SDS011;14685;50.618;7.024;2024-02-21T05:56:46;9.73;;;4.28;;
27163;SDS011;14685;50.618;7.024;2024-02-21T05:59:14;10.32;;;3.80;;
27163;SDS011;14685;50.618;7.024;2024-02-21T06:01:41;11.70;;;4.45;;
27163;SDS011;14685;50.618;7.024;2024-02-21T06:04:11;8.80;;;3.95;;
27163;SDS011;14685;50.618;7.024;2024-02-21T06:06:38;10.40;;;3.55;;
27163;SDS011;14685;50.618;7.024;2024-02-21T06:09:05;11.25;;;4.25;;
27163;SDS011;14685;50.618;7.024;2024-02-21T06:11:34;13.85;;;4.72;;
27163;SDS011;14685;50.618;7.024;2024-02-21T06:14:09;14.90;;;4.82;;
27163;SDS011;14685;50.618;7.024;2024-02-21T06:16:36;14.18;;;4.75;;
27163;SDS011;14685;50.618;7.024;2024-02-21T06:19:03;11.52;;;4.13;;
27163;SDS011;14685;50.618;7.024;2024-02-21T06:21:33;11.85;;;3.90;;
27163;SDS011;14685;50.618;7.024;2024-02-21T06:24:00;17.20;;;5.68;;
27163;SDS011;14685;50.618;7.024;2024-02-21T06:26:28;16.58;;;5.75;;
27163;SDS011;14685;50.618;7.024;2024-02-21T06:28:55;9.85;;;4.55;;
27163;SDS011;14685;50.618;7.024;2024-02-21T06:31:22;13.40;;;4.70;;
27163;SDS011;14685;50.618;7.024;2024-02-21T06:33:50;12.02;;;4.30;;
27163;SDS011;14685;50.618;7.024;2024-02-21T06:36:17;13.30;;;4.75;;
27163;SDS011;14685;50.618;7.024;2024-02-21T06:38:44;14.45;;;4.70;;
27163;SDS011;14685;50.618;7.024;2024-02-21T06:41:18;15.90;;;5.22;;
27163;SDS011;14685;50.618;7.024;2024-02-21T06:43:46;10.65;;;4.15;;
27163;SDS011;14685;50.618;7.024;2024-02-21T06:46:25;15.48;;;4.85;;
27163;SDS011;14685;50.618;7.024;2024-02-21T06:49:00;9.52;;;5.00;;
27163;SDS011;14685;50.618;7.024;2024-02-21T06:51:34;13.77;;;4.93;;
27163;SDS011;14685;50.618;7.024;2024-02-21T06:54:01;15.68;;;5.18;;
27163;SDS011;14685;50.618;7.024;2024-02-21T06:56:29;20.88;;;5.32;;
27163;SDS011;14685;50.618;7.024;2024-02-21T06:58:58;13.63;;;5.60;;
27163;SDS011;14685;50.618;7.024;2024-02-21T07:01:26;9.85;;;5.05;;
27163;SDS011;14685;50.618;7.024;2024-02-21T07:03:55;14.90;;;5.57;;
27163;SDS011;14685;50.618;7.024;2024-02-21T07:06:23;13.63;;;5.40;;
27163;SDS011;14685;50.618;7.024;2024-02-21T07:08:50;13.10;;;5.75;;
27163;SDS011;14685;50.618;7.024;2024-02-21T07:11:18;11.52;;;4.80;;
27163;SDS011;14685;50.618;7.024;2024-02-21T07:13:45;18.95;;;5.32;;
27163;SDS011;14685;50.618;7.024;2024-02-21T07:16:13;14.60;;;4.70;;
27163;SDS011;14685;50.618;7.024;2024-02-21T07:18:41;11.68;;;4.03;;
27163;SDS011;14685;50.618;7.024;2024-02-21T07:21:13;11.43;;;4.68;;
27163;SDS011;14685;50.618;7.024;2024-02-21T07:23:41;12.77;;;4.78;;
27163;SDS011;14685;50.618;7.024;2024-02-21T07:26:09;10.45;;;4.68;;
27163;SDS011;14685;50.618;7.024;2024-02-21T07:28:36;11.30;;;4.57;;
27163;SDS011;14685;50.618;7.024;2024-02-21T07:31:03;9.82;;;4.85;;
27163;SDS011;14685;50.618;7.024;2024-02-21T07:33:30;14.07;;;4.60;;
27163;SDS011;14685;50.618;7.024;2024-02-21T07:36:01;12.68;;;5.35;;
27163;SDS011;14685;50.618;7.024;2024-02-21T07:38:31;9.68;;;4.70;;
27163;SDS011;14685;50.618;7.024;2024-02-21T07:40:58;8.73;;;4.35;;
27163;SDS011;14685;50.618;7.024;2024-02-21T07:43:27;13.95;;;4.68;;
27163;SDS011;14685;50.618;7.024;2024-02-21T07:45:54;13.18;;;4.85;;
27163;SDS011;14685;50.618;7.024;2024-02-21T07:48:22;15.07;;;4.65;;
27163;SDS011;14685;50.618;7.024;2024-02-21T07:50:53;15.15;;;5.72;;
27163;SDS011;14685;50.618;7.024;2024-02-21T07:53:26;12.10;;;5.40;;
27163;SDS011;14685;50.618;7.024;2024-02-21T07:55:53;10.77;;;4.23;;
27163;SDS011;14685;50.618;7.024;2024-02-21T07:58:22;19.90;;;5.55;;
27163;SDS011;14685;50.618;7.024;2024-02-21T08:00:49;15.02;;;4.78;;
27163;SDS011;14685;50.618;7.024;2024-02-21T08:03:17;12.15;;;4.78;;
27163;SDS011;14685;50.618;7.024;2024-02-21T08:05:44;14.15;;;4.70;;
27163;SDS011;14685;50.618;7.024;2024-02-21T08:08:12;11.10;;;4.22;;
27163;SDS011;14685;50.618;7.024;2024-02-21T08:10:44;10.17;;;4.40;;
27163;SDS011;14685;50.618;7.024;2024-02-21T08:13:12;12.13;;;4.65;;
27163;SDS011;14685;50.618;7.024;2024-02-21T08:15:39;15.13;;;4.65;;
27163;SDS011;14685;50.618;7.024;2024-02-21T08:18:08;14.02;;;4.68;;
27163;SDS011;14685;50.618;7.024;2024-02-21T08:20:36;13.25;;;4.25;;
27163;SDS011;14685;50.618;7.024;2024-02-21T08:23:03;12.55;;;4.45;;
27163;SDS011;14685;50.618;7.024;2024-02-21T08:25:30;12.10;;;4.90;;
27163;SDS011;14685;50.618;7.024;2024-02-21T08:27:57;11.93;;;4.40;;
27163;SDS011;14685;50.618;7.024;2024-02-21T08:30:26;12.85;;;4.72;;
27163;SDS011;14685;50.618;7.024;2024-02-21T08:32:54;17.42;;;5.68;;
27163;SDS011;14685;50.618;7.024;2024-02-21T08:35:28;13.93;;;4.85;;
27163;SDS011;14685;50.618;7.024;2024-02-21T08:37:55;15.40;;;5.03;;
27163;SDS011;14685;50.618;7.024;2024-02-21T08:40:24;9.90;;;4.72;;
27163;SDS011;14685;50.618;7.024;2024-02-21T08:42:53;9.75;;;4.75;;
27163;SDS011;14685;50.618;7.024;2024-02-21T08:45:20;15.02;;;4.95;;
27163;SDS011;14685;50.618;7.024;2024-02-21T08:47:47;17.50;;;4.90;;
27163;SDS011;14685;50.618;7.024;2024-02-21T08:50:16;15.43;;;5.05;;
27163;SDS011;14685;50.618;7.024;2024-02-21T08:52:53;14.88;;;4.45;;
27163;SDS011;14685;50.618;7.024;2024-02-21T08:55:21;10.95;;;4.43;;
27163;SDS011;14685;50.618;7.024;2024-02-21T08:57:49;13.05;;;4.32;;
27163;SDS011;14685;50.618;7.024;2024-02-21T09:00:16;10.65;;;4.47;;
27163;SDS011;14685;50.618;7.024;2024-02-21T09:02:44;12.98;;;5.10;;
27163;SDS011;14685;50.618;7.024;2024-02-21T09:05:11;11.77;;;3.80;;
27163;SDS011;14685;50.618;7.024;2024-02-21T09:07:38;19.42;;;6.20;;
27163;SDS011;14685;50.618;7.024;2024-02-21T09:10:05;19.13;;;4.57;;
27163;SDS011;14685;50.618;7.024;2024-02-21T09:12:34;13.52;;;4.72;;
27163;SDS011;14685;50.618;7.024;2024-02-21T09:15:00;13.25;;;4.53;;
27163;SDS011;14685;50.618;7.024;2024-02-21T09:17:28;12.55;;;4.07;;
27163;SDS011;14685;50.618;7.024;2024-02-21T09:19:56;15.65;;;4.90;;
27163;SDS011;14685;50.618;7.024;2024-02-21T09:22:29;13.10;;;4.20;;
27163;SDS011;14685;50.618;7.024;2024-02-21T09:24:56;13.25;;;4.18;;
27163;SDS011;14685;50.618;7.024;2024-02-21T09:27:23;13.52;;;4.65;;
27163;SDS011;14685;50.618;7.024;2024-02-21T09:29:53;16.30;;;4.32;;
27163;SDS011;14685;50.618;7.024;2024-02-21T09:32:20;12.43;;;4.45;;
27163;SDS011;14685;50.618;7.024;2024-02-21T09:34:48;11.15;;;3.92;;
27163;SDS011;14685;50.618;7.024;2024-02-21T09:37:15;13.38;;;4.00;;
27163;SDS011;14685;50.618;7.024;2024-02-21T09:39:42;12.65;;;4.25;;
27163;SDS011;14685;50.618;7.024;2024-02-21T09:42:11;14.52;;;4.03;;
27163;SDS011;14685;50.618;7.024;2024-02-21T09:44:38;10.48;;;3.28;;
27163;SDS011;14685;50.618;7.024;2024-02-21T09:47:22;14.30;;;3.72;;
27163;SDS011;14685;50.618;7.024;2024-02-21T09:49:57;13.00;;;3.92;;
27163;SDS011;14685;50.618;7.024;2024-02-21T09:52:25;10.05;;;3.67;;
27163;SDS011;14685;50.618;7.024;2024-02-21T09:54:53;15.25;;;4.25;;
27163;SDS011;14685;50.618;7.024;2024-02-21T09:57:20;9.85;;;3.88;;
27163;SDS011;14685;50.618;7.024;2024-02-21T09:59:49;10.75;;;3.58;;
27163;SDS011;14685;50.618;7.024;2024-02-21T10:02:17;13.63;;;4.00;;
27163;SDS011;14685;50.618;7.024;2024-02-21T10:04:45;9.60;;;3.17;;
27163;SDS011;14685;50.618;7.024;2024-02-21T10:07:12;9.23;;;3.88;;
27163;SDS011;14685;50.618;7.024;2024-02-21T10:09:39;9.75;;;3.53;;
27163;SDS011;14685;50.618;7.024;2024-02-21T10:12:07;13.18;;;4.00;;
27163;SDS011;14685;50.618;7.024;2024-02-21T10:14:36;11.45;;;3.63;;
27163;SDS011;14685;50.618;7.024;2024-02-21T10:17:08;10.38;;;3.60;;
27163;SDS011;14685;50.618;7.024;2024-02-21T10:19:43;12.82;;;3.58;;
27163;SDS011;14685;50.618;7.024;2024-02-21T10:22:11;8.27;;;3.55;;
27163;SDS011;14685;50.618;7.024;2024-02-21T10:24:38;10.27;;;3.42;;
27163;SDS011;14685;50.618;7.024;2024-02-21T10:27:08;9.88;;;3.17;;
27163;SDS011;14685;50.618;7.024;2024-02-21T10:29:38;8.02;;;3.53;;
27163;SDS011;14685;50.618;7.024;2024-02-21T10:34:36;13.00;;;3.55;;
27163;SDS011;14685;50.618;7.024;2024-02-21T10:37:11;7.70;;;3.45;;
27163;SDS011;14685;50.618;7.024;2024-02-21T10:39:39;12.10;;;3.50;;
27163;SDS011;14685;50.618;7.024;2024-02-21T10:42:07;8.07;;;3.17;;
27163;SDS011;14685;50.618;7.024;2024-02-21T10:44:38;9.32;;;3.30;;
27163;SDS011;14685;50.618;7.024;2024-02-21T10:47:08;9.43;;;3.10;;
27163;SDS011;14685;50.618;7.024;2024-02-21T10:49:39;11.40;;;3.28;;
27163;SDS011;14685;50.618;7.024;2024-02-21T10:55:04;9.93;;;3.53;;
27163;SDS011;14685;50.618;7.024;2024-02-21T10:57:37;12.48;;;3.47;;
27163;SDS011;14685;50.618;7.024;2024-02-21T11:00:04;8.75;;;3.30;;
27163;SDS011;14685;50.618;7.024;2024-02-21T11:02:39;7.03;;;2.80;;
27163;SDS011;14685;50.618;7.024;2024-02-21T11:05:08;8.35;;;3.42;;
27163;SDS011;14685;50.618;7.024;2024-02-21T11:07:36;8.43;;;3.28;;
27163;SDS011;14685;50.618;7.024;2024-02-21T11:10:05;8.93;;;3.30;;
27163;SDS011;14685;50.618;7.024;2024-02-21T11:12:46;10.40;;;3.30;;
27163;SDS011;14685;50.618;7.024;2024-02-21T11:15:14;8.05;;;2.63;;
27163;SDS011;14685;50.618;7.024;2024-02-21T11:17:41;7.28;;;3.13;;
27163;SDS011;14685;50.618;7.024;2024-02-21T11:20:33;9.75;;;3.65;;
27163;SDS011;14685;50.618;7.024;2024-02-21T11:23:02;8.25;;;3.00;;
27163;SDS011;14685;50.618;7.024;2024-02-21T11:25:29;11.65;;;3.13;;
27163;SDS011;14685;50.618;7.024;2024-02-21T11:28:03;9.88;;;3.30;;
27163;SDS011;14685;50.618;7.024;2024-02-21T11:30:36;10.52;;;3.55;;
27163;SDS011;14685;50.618;7.024;2024-02-21T11:33:08;10.80;;;3.67;;
27163;SDS011;14685;50.618;7.024;2024-02-21T11:35:35;9.75;;;3.15;;
27163;SDS011;14685;50.618;7.024;2024-02-21T11:38:11;7.93;;;3.10;;
27163;SDS011;14685;50.618;7.024;2024-02-21T11:40:44;8.50;;;3.75;;
27163;SDS011;14685;50.618;7.024;2024-02-21T11:43:13;10.65;;;3.67;;
27163;SDS011;14685;50.618;7.024;2024-02-21T11:45:40;7.75;;;3.72;;
27163;SDS011;14685;50.618;7.024;2024-02-21T11:48:07;8.85;;;3.78;;
27163;SDS011;14685;50.618;7.024;2024-02-21T11:50:35;10.43;;;3.72;;
27163;SDS011;14685;50.618;7.024;2024-02-21T11:53:03;7.00;;;3.58;;
27163;SDS011;14685;50.618;7.024;2024-02-21T11:55:30;7.85;;;3.35;;
27163;SDS011;14685;50.618;7.024;2024-02-21T11:57:57;9.88;;;3.67;;
27163;SDS011;14685;50.618;7.024;2024-02-21T12:00:25;11.88;;;3.72;;
27163;SDS011;14685;50.618;7.024;2024-02-21T12:02:52;12.93;;;4.00;;
27163;SDS011;14685;50.618;7.024;2024-02-21T12:05:19;9.88;;;3.30;;
27163;SDS011;14685;50.618;7.024;2024-02-21T12:07:48;9.52;;;4.18;;
27163;SDS011;14685;50.618;7.024;2024-02-21T12:10:15;12.18;;;3.72;;
27163;SDS011;14685;50.618;7.024;2024-02-21T12:12:42;9.75;;;3.63;;
27163;SDS011;14685;50.618;7.024;2024-02-21T12:15:10;7.82;;;3.17;;
27163;SDS011;14685;50.618;7.024;2024-02-21T12:17:39;13.25;;;3.35;;
27163;SDS011;14685;50.618;7.024;2024-02-21T12:20:07;8.75;;;3.88;;
27163;SDS011;14685;50.618;7.024;2024-02-21T12:22:42;12.02;;;3.58;;
27163;SDS011;14685;50.618;7.024;2024-02-21T12:25:17;7.72;;;3.30;;
27163;SDS011;14685;50.618;7.024;2024-02-21T12:27:46;9.27;;;3.28;;
27163;SDS011;14685;50.618;7.024;2024-02-21T12:30:13;9.43;;;3.28;;
27163;SDS011;14685;50.618;7.024;2024-02-21T12:32:40;9.30;;;3.67;;
27163;SDS011;14685;50.618;7.024;2024-02-21T12:35:08;9.40;;;3.67;;
27163;SDS011;14685;50.618;7.024;2024-02-21T12:37:35;9.98;;;3.50;;
27163;SDS011;14685;50.618;7.024;2024-02-21T12:40:06;14.98;;;3.70;;
27163;SDS011;14685;50.618;7.024;2024-02-21T12:42:33;7.97;;;3.45;;
27163;SDS011;14685;50.618;7.024;2024-02-21T12:45:01;10.98;;;3.38;;
27163;SDS011;14685;50.618;7.024;2024-02-21T12:47:29;10.63;;;4.07;;
27163;SDS011;14685;50.618;7.024;2024-02-21T12:49:57;8.50;;;3.40;;
27163;SDS011;14685;50.618;7.024;2024-02-21T12:52:24;8.25;;;3.55;;
27163;SDS011;14685;50.618;7.024;2024-02-21T12:54:51;9.50;;;3.50;;
27163;SDS011;14685;50.618;7.024;2024-02-21T12:57:23;6.97;;;2.78;;
27163;SDS011;14685;50.618;7.024;2024-02-21T12:59:53;7.85;;;2.95;;
27163;SDS011;14685;50.618;7.024;2024-02-21T13:02:21;10.30;;;4.22;;
27163;SDS011;14685;50.618;7.024;2024-02-21T13:04:48;8.80;;;3.55;;
27163;SDS011;14685;50.618;7.024;2024-02-21T13:07:16;8.48;;;3.35;;
27163;SDS011;14685;50.618;7.024;2024-02-21T13:09:48;11.32;;;3.88;;
27163;SDS011;14685;50.618;7.024;2024-02-21T13:12:17;8.20;;;3.13;;
27163;SDS011;14685;50.618;7.024;2024-02-21T13:14:44;9.85;;;3.15;;
27163;SDS011;14685;50.618;7.024;2024-02-21T13:17:11;9.00;;;3.67;;
27163;SDS011;14685;50.618;7.024;2024-02-21T13:19:38;8.63;;;3.33;;
27163;SDS011;14685;50.618;7.024;2024-02-21T13:22:05;7.78;;;3.25;;
27163;SDS011;14685;50.618;7.024;2024-02-21T13:24:33;7.57;;;2.90;;
27163;SDS011;14685;50.618;7.024;2024-02-21T13:27:02;7.78;;;3.15;;
27163;SDS011;14685;50.618;7.024;2024-02-21T13:29:30;12.80;;;3.08;;
27163;SDS011;14685;50.618;7.024;2024-02-21T13:31:57;8.20;;;3.42;;
27163;SDS011;14685;50.618;7.024;2024-02-21T13:34:25;11.70;;;3.45;;
27163;SDS011;14685;50.618;7.024;2024-02-21T13:36:52;7.75;;;3.22;;
27163;SDS011;14685;50.618;7.024;2024-02-21T13:39:21;6.28;;;2.83;;
27163;SDS011;14685;50.618;7.024;2024-02-21T13:41:50;8.18;;;2.90;;
27163;SDS011;14685;50.618;7.024;2024-02-21T13:44:20;11.45;;;3.13;;
27163;SDS011;14685;50.618;7.024;2024-02-21T13:46:47;8.68;;;2.90;;
27163;SDS011;14685;50.618;7.024;2024-02-21T13:49:15;7.25;;;2.65;;
27163;SDS011;14685;50.618;7.024;2024-02-21T13:51:42;5.68;;;2.67;;
27163;SDS011;14685;50.618;7.024;2024-02-21T13:54:11;6.80;;;2.83;;
27163;SDS011;14685;50.618;7.024;2024-02-21T13:56:41;8.30;;;3.28;;
27163;SDS011;14685;50.618;7.024;2024-02-21T13:59:12;8.15;;;2.80;;
27163;SDS011;14685;50.618;7.024;2024-02-21T14:01:40;10.60;;;3.00;;
27163;SDS011;14685;50.618;7.024;2024-02-21T14:04:07;8.30;;;2.47;;
27163;SDS011;14685;50.618;7.024;2024-02-21T14:06:34;10.15;;;2.78;;
27163;SDS011;14685;50.618;7.024;2024-02-21T14:09:02;10.30;;;3.08;;
27163;SDS011;14685;50.618;7.024;2024-02-21T14:11:31;7.35;;;2.55;;
27163;SDS011;14685;50.618;7.024;2024-02-21T14:13:58;4.72;;;2.03;;
27163;SDS011;14685;50.618;7.024;2024-02-21T14:16:25;6.90;;;2.83;;
27163;SDS011;14685;50.618;7.024;2024-02-21T14:18:52;11.52;;;3.25;;
27163;SDS011;14685;50.618;7.024;2024-02-21T14:21:21;11.65;;;2.90;;
27163;SDS011;14685;50.618;7.024;2024-02-21T14:23:48;7.10;;;2.50;;
27163;SDS011;14685;50.618;7.024;2024-02-21T14:26:15;7.38;;;2.15;;
27163;SDS011;14685;50.618;7.024;2024-02-21T14:28:42;12.30;;;2.30;;
27163;SDS011;14685;50.618;7.024;2024-02-21T14:31:09;10.23;;;2.80;;
27163;SDS011;14685;50.618;7.024;2024-02-21T14:33:37;7.85;;;3.08;;
27163;SDS011;14685;50.618;7.024;2024-02-21T14:36:06;7.35;;;2.60;;
27163;SDS011;14685;50.618;7.024;2024-02-21T14:38:34;6.60;;;2.67;;
27163;SDS011;14685;50.618;7.024;2024-02-21T14:41:03;10.35;;;2.97;;
27163;SDS011;14685;50.618;7.024;2024-02-21T14:43:30;6.03;;;2.28;;
27163;SDS011;14685;50.618;7.024;2024-02-21T14:45:58;11.88;;;2.60;;
27163;SDS011;14685;50.618;7.024;2024-02-21T14:48:26;5.97;;;2.33;;
27163;SDS011;14685;50.618;7.024;2024-02-21T14:50:55;8.63;;;2.75;;